Time;durP1;ratioP1;P1;durP2;ratioP2;P2;SDS_P1;SDS_P2;PMS_P1;PMS_P2;Temp;Humidity;BMP_temperature;BMP_pressure;BME280_temperature;BME280_humidity;BME280_pressure;Samples;Min_cycle;Max_cycle;Signal;HPM_P1;HPM_P2
2022/04/29 00:00:53;;;;;;;8.65;4.60;;;;;;;10.19;54.40;97717.84;4995784;28;20046;-80
2022/04/29 00:03:22;;;;;;;8.23;4.25;;;;;;;10.20;54.08;97714.25;4995355;28;20082;-78
2022/04/29 00:05:53;;;;;;;4.60;4.20;;;;;;;10.18;54.19;97710.97;4994292;28;20501;-77
2022/04/29 00:08:21;;;;;;;4.20;3.88;;;;;;;10.20;54.81;97706.44;4996810;28;20058;-78
2022/04/29 00:10:48;;;;;;;5.10;4.60;;;;;;;10.23;55.05;97706.13;4998539;28;20081;-77
2022/04/29 00:13:17;;;;;;;5.82;4.55;;;;;;;10.22;54.64;97707.09;4998833;28;20062;-77
2022/04/29 00:15:45;;;;;;;8.52;5.60;;;;;;;10.22;58.28;97707.09;4998038;28;20489;-76
2022/04/29 00:18:13;;;;;;;5.45;4.95;;;;;;;10.23;55.29;97702.69;4998172;28;20058;-80
2022/04/29 00:20:41;;;;;;;5.35;4.35;;;;;;;10.18;54.91;97710.97;5000210;28;20420;-78
2022/04/29 00:23:10;;;;;;;4.95;4.43;;;;;;;10.16;54.68;97714.72;4999312;28;20050;-78
2022/04/29 00:25:38;;;;;;;6.30;4.60;;;;;;;10.14;54.83;97714.84;4998922;28;20050;-79
2022/04/29 00:28:06;;;;;;;6.20;4.75;;;;;;;10.18;56.24;97710.97;4999310;28;20053;-79
2022/04/29 00:30:34;;;;;;;7.03;5.22;;;;;;;10.19;54.68;97707.41;4999470;28;20054;-78
2022/04/29 00:33:03;;;;;;;5.30;4.50;;;;;;;10.15;54.59;97700.84;4998828;28;20042;-80
2022/04/29 00:35:30;;;;;;;5.38;4.85;;;;;;;10.11;54.44;97699.53;4998500;28;20464;-76
2022/04/29 00:37:59;;;;;;;5.28;4.78;;;;;;;10.04;54.42;97703.72;4999097;28;20050;-78
2022/04/29 00:40:29;;;;;;;9.45;5.82;;;;;;;9.97;54.41;97700.88;4998615;28;20104;-77
2022/04/29 00:42:57;;;;;;;7.93;4.82;;;;;;;9.96;54.41;97698.44;4998686;28;20050;-76
2022/04/29 00:45:26;;;;;;;5.75;5.18;;;;;;;9.99;57.99;97701.56;4998260;28;20051;-79
2022/04/29 00:47:54;;;;;;;6.10;5.60;;;;;;;10.05;57.28;97694.91;4997752;28;20082;-76
2022/04/29 00:50:24;;;;;;;6.88;6.18;;;;;;;10.06;58.50;97694.75;4998680;28;20074;-76
2022/04/29 00:52:54;;;;;;;6.57;5.53;;;;;;;10.09;57.55;97691.84;4998550;28;20054;-79
2022/04/29 00:55:23;;;;;;;8.43;6.03;;;;;;;10.09;56.10;97685.81;4998370;28;20065;-77
2022/04/29 00:57:55;;;;;;;6.97;5.28;;;;;;;10.02;55.07;97682.19;4997527;28;20073;-81
2022/04/29 01:00:23;;;;;;;;;;;;;;;9.96;54.96;97677.56;4998574;28;20051;-78
2022/04/29 01:02:52;;;;;;;7.97;5.75;;;;;;;9.85;55.11;97669.00;4997861;28;19925;-76
2022/04/29 01:05:23;;;;;;;8.32;4.68;;;;;;;9.81;55.25;97672.06;4997571;28;20181;-77
2022/04/29 01:07:52;;;;;;;8.98;5.63;;;;;;;9.83;55.34;97670.13;4998674;28;20046;-80
2022/04/29 01:10:21;;;;;;;6.20;5.22;;;;;;;9.77;54.98;97662.91;4998094;28;20523;-77
2022/04/29 01:12:54;;;;;;;6.03;5.43;;;;;;;9.69;55.16;97663.69;4998127;28;20056;-78
2022/04/29 01:15:22;;;;;;;5.70;5.20;;;;;;;9.62;55.39;97652.19;4998834;28;20081;-79
2022/04/29 01:17:53;;;;;;;7.15;5.40;;;;;;;9.57;55.26;97662.25;4997216;28;20058;-78
2022/04/29 01:20:25;;;;;;;7.45;6.05;;;;;;;9.51;55.27;97666.28;4998314;28;20448;-81
2022/04/29 01:22:55;;;;;;;7.00;5.25;;;;;;;9.46;55.24;97658.09;4998058;28;20064;-78
2022/04/29 01:25:22;;;;;;;6.40;5.40;;;;;;;9.40;55.41;97649.09;4998183;28;20068;-79
2022/04/29 01:27:51;;;;;;;6.95;6.10;;;;;;;9.32;55.56;97656.81;4997141;28;20078;-77
2022/04/29 01:30:18;;;;;;;6.03;5.43;;;;;;;9.29;56.05;97651.91;4998087;28;20125;-78
2022/04/29 01:32:46;;;;;;;7.97;5.43;;;;;;;9.30;55.90;97645.75;4998438;28;20055;-78
2022/04/29 01:35:15;;;;;;;6.80;6.07;;;;;;;9.31;56.16;97647.34;4998770;28;20476;-77
2022/04/29 01:37:44;;;;;;;7.40;6.70;;;;;;;9.40;60.43;97651.72;4998644;28;20058;-78
2022/04/29 01:40:14;;;;;;;7.13;6.43;;;;;;;9.51;64.43;97655.88;4999449;28;20046;-78
2022/04/29 01:42:43;;;;;;;9.07;7.05;;;;;;;9.59;60.09;97658.53;4998835;28;20074;-78
2022/04/29 01:45:11;;;;;;;7.47;6.78;;;;;;;9.62;60.85;97647.84;4997825;28;20069;-78
2022/04/29 01:47:39;;;;;;;8.18;6.53;;;;;;;9.66;59.71;97648.34;4996908;28;20061;-78
2022/04/29 01:50:07;;;;;;;9.98;7.28;;;;;;;9.69;62.39;97653.25;4997117;28;20073;-78
2022/04/29 01:52:34;;;;;;;7.68;6.55;;;;;;;9.65;59.00;97642.31;4997343;28;20136;-78
2022/04/29 01:55:02;;;;;;;7.07;6.38;;;;;;;9.60;57.82;97638.50;4998152;28;20060;-78
2022/04/29 01:57:31;;;;;;;7.07;5.95;;;;;;;9.55;58.86;97640.75;4997545;28;20054;-78
2022/04/29 01:59:58;;;;;;;7.10;6.40;;;;;;;9.56;59.30;97632.78;4990528;28;20057;-78
2022/04/29 02:02:26;;;;;;;7.60;6.78;;;;;;;9.55;58.88;97630.34;4999369;28;20054;-80
2022/04/29 02:04:54;;;;;;;8.10;7.25;;;;;;;9.54;60.37;97629.53;4998633;28;20066;-79
2022/04/29 02:07:21;;;;;;;10.55;8.05;;;;;;;9.54;61.43;97631.31;4998874;28;20058;-79
2022/04/29 02:09:49;;;;;;;8.48;7.57;;;;;;;9.54;62.52;97626.09;4999282;28;20046;-78
2022/04/29 02:12:17;;;;;;;9.05;7.88;;;;;;;9.58;63.89;97627.44;4999422;28;20054;-79
2022/04/29 02:14:46;;;;;;;9.02;8.13;;;;;;;9.65;64.11;97631.88;4999143;28;20050;-79
2022/04/29 02:17:13;;;;;;;9.80;8.73;;;;;;;9.66;62.38;97628.34;4997391;28;20050;-79
2022/04/29 02:19:41;;;;;;;9.93;7.80;;;;;;;9.65;62.30;97631.88;4998409;28;20057;-79
2022/04/29 02:22:10;;;;;;;12.05;6.75;;;;;;;9.58;59.85;97627.44;4998625;28;20100;-79
2022/04/29 02:24:38;;;;;;;10.23;7.15;;;;;;;9.51;60.36;97629.00;4998400;28;20050;-78
2022/04/29 02:27:07;;;;;;;8.27;6.35;;;;;;;9.41;58.63;97627.28;4997003;28;20432;-77
2022/04/29 02:29:35;;;;;;;7.82;6.65;;;;;;;9.34;59.53;97628.03;4997478;28;20481;-79
2022/04/29 02:32:04;;;;;;;9.07;7.00;;;;;;;9.31;60.19;97628.31;4997354;28;20060;-78
2022/04/29 02:34:32;;;;;;;11.27;7.88;;;;;;;9.33;60.25;97631.59;4997947;28;20054;-79
2022/04/29 02:36:59;;;;;;;7.75;6.97;;;;;;;9.31;62.20;97625.72;4996727;28;20065;-80
2022/04/29 02:39:27;;;;;;;8.40;6.72;;;;;;;9.27;60.46;97627.78;4997772;28;20059;-79
2022/04/29 02:41:55;;;;;;;9.70;7.18;;;;;;;9.16;58.72;97623.66;4996865;28;20054;-78
2022/04/29 02:44:22;;;;;;;8.10;6.65;;;;;;;9.10;59.18;97626.03;4997272;28;20397;-77
2022/04/29 02:47:08;;;;;;;10.35;6.80;;;;;;;9.12;60.41;97614.50;4995244;28;20050;-78
2022/04/29 02:49:39;;;;;;;7.68;6.90;;;;;;;9.14;59.98;97627.34;4996185;28;20065;-78
2022/04/29 02:52:08;;;;;;;9.50;6.47;;;;;;;9.14;62.32;97625.56;4995968;28;20046;-76
2022/04/29 02:54:36;;;;;;;7.63;6.93;;;;;;;9.18;63.52;97620.88;4995688;28;20050;-77
2022/04/29 02:57:04;;;;;;;8.07;6.43;;;;;;;9.16;60.59;97622.81;4995322;28;20497;-77
2022/04/29 02:59:32;;;;;;;6.53;5.78;;;;;;;9.15;60.40;97621.19;4995454;28;20055;-75
2022/04/29 03:02:00;;;;;;;7.35;6.40;;;;;;;9.18;62.80;97623.47;4995117;28;20054;-78
2022/04/29 03:04:27;;;;;;;7.60;6.88;;;;;;;9.20;62.90;97624.16;4995702;28;20050;-77
2022/04/29 03:06:56;;;;;;;8.70;6.78;;;;;;;9.21;61.27;97618.81;4994749;28;20050;-78
2022/04/29 03:09:24;;;;;;;10.48;7.53;;;;;;;9.16;59.28;97613.22;4995670;28;20054;-76
2022/04/29 03:11:52;;;;;;;8.40;6.05;;;;;;;9.07;58.53;97607.13;4995498;28;20599;-78
2022/04/29 03:14:19;;;;;;;7.35;6.57;;;;;;;8.96;57.90;97602.09;4994790;28;20504;-77
2022/04/29 03:16:50;;;;;;;7.80;6.50;;;;;;;8.85;57.69;97597.94;4994442;28;20129;-78
2022/04/29 03:19:18;;;;;;;9.75;6.57;;;;;;;8.77;57.71;97603.06;4996399;28;20061;-78
2022/04/29 03:21:46;;;;;;;6.63;5.90;;;;;;;8.72;57.67;97601.84;4996277;28;20061;-79
2022/04/29 03:24:15;;;;;;;9.30;6.55;;;;;;;8.64;57.69;97595.59;4996727;28;20405;-77
2022/04/29 03:26:43;;;;;;;7.43;6.57;;;;;;;8.58;57.84;97596.16;4995766;28;20528;-78
2022/04/29 03:29:11;;;;;;;8.40;7.45;;;;;;;8.56;57.72;97592.88;4996550;28;20057;-79
2022/04/29 03:31:38;;;;;;;7.82;6.88;;;;;;;8.52;57.52;97601.94;4995965;28;20508;-78
2022/04/29 03:34:06;;;;;;;7.95;6.10;;;;;;;8.49;57.87;97589.25;4995906;28;20073;-78
2022/04/29 03:36:33;;;;;;;7.10;6.43;;;;;;;8.47;57.92;97595.56;4994778;28;20046;-76
2022/04/29 03:39:01;;;;;;;7.68;6.18;;;;;;;8.45;57.87;97595.69;4995136;28;20061;-76
2022/04/29 03:41:30;;;;;;;8.10;6.60;;;;;;;8.44;58.40;97596.66;4994307;28;20050;-80
2022/04/29 03:43:58;;;;;;;7.68;6.05;;;;;;;8.49;58.17;97591.03;4993324;28;20054;-78
2022/04/29 03:46:25;;;;;;;7.43;6.63;;;;;;;8.57;61.91;97591.94;4994490;28;20439;-77
2022/04/29 03:51:38;;;;;;;9.82;6.82;;;;;;;8.55;58.48;97591.28;4994214;28;20057;-77
2022/04/29 03:54:05;;;;;;;8.75;6.68;;;;;;;8.54;60.33;97594.00;4994326;28;20512;-76
2022/04/29 03:56:34;;;;;;;10.90;8.00;;;;;;;8.64;64.35;97599.97;4993233;28;20058;-78
2022/04/29 03:59:02;;;;;;;11.07;7.70;;;;;;;8.71;62.14;97601.03;4994662;28;20072;-75
2022/04/29 04:01:29;;;;;;;10.43;8.13;;;;;;;8.71;60.44;97601.03;4994368;28;20540;-78
2022/04/29 04:03:57;;;;;;;8.63;7.50;;;;;;;8.66;59.67;97595.47;4994073;28;20046;-77
2022/04/29 04:09:10;;;;;;;10.88;8.35;;;;;;;8.63;60.83;97600.94;4994203;28;20050;-78
2022/04/29 04:11:38;;;;;;;10.63;7.57;;;;;;;8.66;60.56;97606.66;4994132;28;20053;-77
2022/04/29 04:14:06;;;;;;;10.75;8.13;;;;;;;8.68;63.62;97603.09;4993574;28;20057;-78
2022/04/29 04:16:34;;;;;;;10.35;8.00;;;;;;;8.65;60.80;97607.63;4993370;28;20431;-78
2022/04/29 04:19:01;;;;;;;9.82;7.60;;;;;;;8.60;60.95;97609.03;4995971;28;20054;-80
2022/04/29 04:21:29;;;;;;;11.15;7.38;;;;;;;8.57;59.64;97604.94;4990650;28;20154;-78
2022/04/29 04:23:57;;;;;;;9.50;7.35;;;;;;;8.55;59.85;97606.03;5009235;28;20069;-79
2022/04/29 04:26:24;;;;;;;9.80;7.82;;;;;;;8.61;63.72;97605.47;5013932;28;20050;-80
2022/04/29 04:28:53;;;;;;;11.85;7.93;;;;;;;8.66;64.23;97614.47;5013857;28;20132;-79
2022/04/29 04:31:21;;;;;;;13.75;7.78;;;;;;;8.66;62.81;97609.28;5002798;28;20053;-79
2022/04/29 04:33:49;;;;;;;13.38;8.88;;;;;;;8.70;62.82;97611.56;4988281;28;20129;-78
2022/04/29 04:36:16;;;;;;;14.90;8.80;;;;;;;8.65;61.45;97612.81;4984408;28;20054;-78
2022/04/29 04:38:47;;;;;;;12.75;8.52;;;;;;;8.68;64.59;97614.34;4988405;28;20058;-78
2022/04/29 04:41:15;;;;;;;12.13;7.50;;;;;;;8.69;61.41;97613.38;4975585;28;20516;-77
2022/04/29 04:43:43;;;;;;;10.68;7.97;;;;;;;8.69;65.08;97617.75;4980730;28;20136;-80
2022/04/29 04:46:13;;;;;;;12.00;8.70;;;;;;;8.72;66.30;97618.25;4994394;28;20700;-78
2022/04/29 04:48:42;;;;;;;13.30;8.23;;;;;;;8.78;66.86;97617.69;4985711;28;20073;-81
2022/04/29 04:51:10;;;;;;;8.80;7.57;;;;;;;8.84;64.56;97621.50;4981300;28;20050;-79
2022/04/29 04:53:37;;;;;;;11.90;7.82;;;;;;;8.88;64.88;97615.06;4990603;28;20043;-78
2022/04/29 04:56:05;;;;;;;9.05;7.22;;;;;;;8.92;64.47;97629.41;4978131;28;20059;-78
2022/04/29 04:58:34;;;;;;;9.07;7.45;;;;;;;8.97;66.12;97623.78;4980274;28;20066;-80
2022/04/29 05:01:02;;;;;;;8.90;7.53;;;;;;;8.98;63.72;97628.81;4995723;28;20053;-78
2022/04/29 05:03:33;;;;;;;9.88;7.80;;;;;;;8.98;64.77;97622.78;4986127;28;20049;-78
2022/04/29 05:06:00;;;;;;;10.15;8.13;;;;;;;8.95;62.50;97621.31;4997974;28;20050;-81
2022/04/29 05:08:28;;;;;;;12.88;7.95;;;;;;;8.98;64.82;97621.00;4980020;28;20051;-79
2022/04/29 05:10:55;;;;;;;25.27;10.13;;;;;;;8.98;64.71;97618.41;4979681;28;20050;-79
2022/04/29 05:13:23;;;;;;;20.10;10.07;;;;;;;9.04;65.85;97619.59;4998451;28;20046;-77
2022/04/29 05:15:50;;;;;;;17.52;10.05;;;;;;;9.10;64.72;97626.03;4989830;28;20042;-78
2022/04/29 05:18:18;;;;;;;24.35;10.02;;;;;;;9.11;63.43;97618.03;4998990;28;20046;-80
2022/04/29 05:20:48;;;;;;;12.98;8.60;;;;;;;9.14;65.83;97627.34;4995644;28;20042;-82
2022/04/29 05:23:16;;;;;;;14.93;9.80;;;;;;;9.17;65.33;97629.66;4987930;28;20054;-82
2022/04/29 05:25:43;;;;;;;12.38;8.80;;;;;;;9.21;65.79;97628.41;4983349;28;20050;-83
2022/04/29 05:28:11;;;;;;;13.30;9.50;;;;;;;9.27;66.28;97625.19;4984770;28;20428;-81
2022/04/29 05:30:39;;;;;;;11.02;9.10;;;;;;;9.32;66.22;97628.19;4982213;28;20050;-81
2022/04/29 05:33:08;;;;;;;13.38;9.88;;;;;;;9.38;66.53;97624.16;4983140;28;20065;-81
2022/04/29 05:35:36;;;;;;;14.35;10.10;;;;;;;9.41;65.09;97629.88;4997008;23;20054;-79
2022/04/29 05:38:05;;;;;;;15.77;11.35;;;;;;;9.44;65.38;97624.38;4976671;28;20070;-79
2022/04/29 05:43:18;;;;;;;14.55;10.52;;;;;;;9.52;66.45;97626.25;4974903;28;20057;-79
2022/04/29 05:45:46;;;;;;;17.17;10.57;;;;;;;9.57;66.31;97634.41;4981770;28;20046;-78
2022/04/29 05:48:14;;;;;;;20.48;10.23;;;;;;;9.63;66.15;97635.63;5010852;28;20109;-81
2022/04/29 05:50:42;;;;;;;13.23;9.40;;;;;;;9.67;66.76;97623.94;5011922;28;20114;-80
2022/04/29 05:53:11;;;;;;;15.48;9.10;;;;;;;9.71;66.49;97635.69;5002358;28;20050;-80
2022/04/29 05:55:38;;;;;;;22.05;9.82;;;;;;;9.75;66.28;97629.22;4989917;28;20061;-80
2022/04/29 05:58:16;;;;;;;11.68;9.05;;;;;;;9.80;65.83;97633.97;5006930;28;20058;-80
2022/04/29 06:00:43;;;;;;;13.30;9.55;;;;;;;9.85;66.03;97635.13;4997047;28;20053;-81
2022/04/29 06:03:11;;;;;;;14.60;9.65;;;;;;;9.91;65.91;97625.91;4997600;28;20093;-82
2022/04/29 06:05:39;;;;;;;13.23;9.48;;;;;;;9.99;66.04;97625.13;4996251;28;20054;-82
2022/04/29 06:08:07;;;;;;;10.60;9.50;;;;;;;10.04;65.46;97623.72;5001385;28;20054;-82
2022/04/29 06:10:36;;;;;;;15.63;10.70;;;;;;;10.12;66.11;97633.34;5009104;28;20138;-82
2022/04/29 06:13:03;;;;;;;11.68;9.57;;;;;;;10.20;66.25;97633.41;4982833;28;20046;-81
2022/04/29 06:15:31;;;;;;;12.30;9.50;;;;;;;10.27;66.92;97633.63;4977026;28;20050;-82
2022/04/29 06:17:59;;;;;;;15.35;10.05;;;;;;;10.34;66.54;97631.25;4995395;28;20050;-82
2022/04/29 06:20:26;;;;;;;14.98;9.52;;;;;;;10.41;66.11;97629.66;4998146;28;20050;-82
2022/04/29 06:22:54;;;;;;;16.45;10.05;;;;;;;10.42;62.10;97631.28;5000315;28;20528;-82
2022/04/29 06:25:22;;;;;;;12.32;9.32;;;;;;;10.41;61.00;97637.50;4996475;28;20050;-82
2022/04/29 06:27:51;;;;;;;14.15;9.40;;;;;;;10.40;59.99;97635.84;4996831;28;20050;-82
2022/04/29 06:30:18;;;;;;;11.18;8.27;;;;;;;10.41;60.08;97638.31;5008658;28;20129;-81
2022/04/29 06:33:06;;;;;;;10.73;8.18;;;;;;;10.48;60.16;97641.09;4998144;28;20046;-81
2022/04/29 06:35:35;;;;;;;12.55;8.23;;;;;;;10.57;60.11;97636.75;4995769;28;20398;-83
2022/04/29 06:38:02;;;;;;;10.18;8.68;;;;;;;10.66;59.66;97638.41;4984337;28;20055;-81
2022/04/29 06:40:30;;;;;;;12.93;9.48;;;;;;;10.74;59.70;97632.44;4975819;28;20042;-82
2022/04/29 06:42:59;;;;;;;11.52;7.82;;;;;;;10.82;59.55;97638.50;4983914;28;20058;-82
2022/04/29 06:45:26;;;;;;;11.60;8.52;;;;;;;10.92;59.06;97636.56;4994513;28;20046;-82
2022/04/29 06:47:54;;;;;;;12.50;8.32;;;;;;;11.03;59.67;97640.66;4993495;28;20058;-82
2022/04/29 06:50:21;;;;;;;12.10;9.25;;;;;;;11.14;59.20;97647.38;4994125;28;20174;-82
2022/04/29 06:52:49;;;;;;;11.73;8.90;;;;;;;11.24;58.49;97640.25;4993865;28;20428;-80
2022/04/29 06:55:16;;;;;;;10.38;8.55;;;;;;;11.36;58.27;97637.31;4993680;28;20050;-82
2022/04/29 06:57:46;;;;;;;10.30;8.40;;;;;;;11.47;58.09;97637.00;4995734;28;20404;-82
2022/04/29 07:00:17;;;;;;;9.65;8.07;;;;;;;11.60;58.71;97633.91;4994535;28;20053;-82
2022/04/29 07:02:45;;;;;;;10.00;8.60;;;;;;;11.71;57.75;97630.97;4993621;28;20050;-81
2022/04/29 07:05:12;;;;;;;9.50;8.50;;;;;;;11.83;59.76;97640.13;4995513;28;20070;-82
2022/04/29 07:07:40;;;;;;;14.65;9.40;;;;;;;11.99;61.14;97628.06;4999422;28;20054;-82
2022/04/29 07:10:08;;;;;;;15.63;8.27;;;;;;;12.10;59.74;97627.72;4993426;28;20050;-81
2022/04/29 07:12:40;;;;;;;10.85;8.20;;;;;;;12.23;61.26;97629.81;4997314;28;20125;-82
2022/04/29 07:15:09;;;;;;;12.40;9.30;;;;;;;12.35;61.11;97628.47;4991093;28;20058;-81
2022/04/29 07:17:38;;;;;;;12.93;8.43;;;;;;;12.46;61.28;97620.28;4994673;28;21594;-82
2022/04/29 07:20:07;;;;;;;14.35;8.35;;;;;;;12.59;60.62;97630.19;4999547;28;20050;-80
2022/04/29 07:22:37;;;;;;;10.15;7.72;;;;;;;12.72;57.54;97630.47;4996710;28;20092;-82
2022/04/29 07:25:05;;;;;;;16.55;8.55;;;;;;;12.85;56.72;97621.25;5050716;23;20054;-81
2022/04/29 07:27:33;;;;;;;12.80;8.23;;;;;;;13.01;56.88;97617.75;4974187;28;20054;-82
2022/04/29 07:30:01;;;;;;;8.90;7.95;;;;;;;13.15;56.45;97609.16;4969826;28;20061;-82
2022/04/29 07:32:28;;;;;;;11.63;8.25;;;;;;;13.32;54.55;97604.66;4973979;28;20050;-81
2022/04/29 07:43:21;;;;;;;9.73;5.90;;;;;;;14.02;50.98;97601.78;4985632;28;20064;-82
2022/04/29 07:45:52;;;;;;;8.70;5.57;;;;;;;14.18;47.74;97589.50;4993481;28;20042;-80
2022/04/29 07:48:22;;;;;;;10.43;6.50;;;;;;;14.38;45.82;97592.41;4998060;28;20090;-81
2022/04/29 07:50:52;;;;;;;7.05;5.18;;;;;;;14.58;44.26;97590.06;4998265;28;20050;-80
2022/04/29 07:53:20;;;;;;;7.13;4.70;;;;;;;14.76;43.30;97581.81;4996827;28;20027;-80
2022/04/29 07:55:48;;;;;;;8.05;4.57;;;;;;;14.90;42.44;97585.41;4997543;28;20061;-81
2022/04/29 07:58:15;;;;;;;6.35;4.93;;;;;;;15.02;42.25;97594.41;4997318;28;20062;-80
2022/04/29 08:00:44;;;;;;;7.88;5.20;;;;;;;15.12;41.00;97591.50;4998057;28;20090;-80
2022/04/29 08:03:32;;;;;;;10.27;5.30;;;;;;;15.22;40.42;97592.81;4997887;28;20089;-80
2022/04/29 08:06:02;;;;;;;13.05;5.07;;;;;;;15.31;40.00;97584.81;4997183;28;20034;-80
2022/04/29 08:08:29;;;;;;;8.88;4.80;;;;;;;15.41;40.48;97585.31;4997311;28;20037;-80
2022/04/29 08:10:57;;;;;;;6.55;4.20;;;;;;;15.53;39.70;97583.81;4987748;28;20416;-81
2022/04/29 08:13:25;;;;;;;6.70;4.57;;;;;;;15.63;38.96;97586.09;4993845;28;20046;-81
2022/04/29 08:15:52;;;;;;;5.38;4.03;;;;;;;15.74;38.55;97584.81;4995401;28;20133;-80
2022/04/29 08:18:20;;;;;;;8.18;4.25;;;;;;;15.85;38.47;97579.88;4998085;28;20095;-81
2022/04/29 08:20:48;;;;;;;11.32;4.78;;;;;;;15.96;38.43;97573.25;4989116;28;20056;-81
2022/04/29 08:23:17;;;;;;;8.40;4.82;;;;;;;16.09;37.93;97584.88;4997353;28;20098;-80
2022/04/29 08:25:44;;;;;;;6.15;4.10;;;;;;;16.22;37.47;97587.59;4997436;28;20035;-79
2022/04/29 08:28:12;;;;;;;8.27;3.75;;;;;;;16.36;36.80;97585.84;4995144;28;20065;-81
2022/04/29 08:30:40;;;;;;;5.13;4.22;;;;;;;16.48;36.51;97587.72;4996817;28;20041;-81
2022/04/29 08:33:12;;;;;;;5.43;4.30;;;;;;;16.61;35.91;97581.72;5002010;28;20078;-80
2022/04/29 08:35:40;;;;;;;5.45;4.38;;;;;;;16.75;35.50;97592.31;5001641;28;20073;-81
2022/04/29 08:38:10;;;;;;;6.00;3.63;;;;;;;16.89;35.00;97584.28;5001174;28;20031;-82
2022/04/29 08:40:43;;;;;;;9.55;4.13;;;;;;;17.03;34.53;97585.16;5001093;28;20065;-79
2022/04/29 08:43:12;;;;;;;6.30;3.78;;;;;;;17.17;34.53;97591.28;5000998;28;20094;-81
2022/04/29 08:45:40;;;;;;;6.72;3.53;;;;;;;17.26;34.83;97587.44;5000101;28;20054;-80
2022/04/29 08:48:08;;;;;;;3.78;3.28;;;;;;;17.38;34.54;97586.84;5000924;28;20066;-80
2022/04/29 08:50:36;;;;;;;4.55;3.15;;;;;;;17.48;33.55;97587.28;5000913;28;20045;-81
2022/04/29 08:53:04;;;;;;;4.97;2.83;;;;;;;17.55;32.77;97582.00;5001178;28;20058;-80
2022/04/29 08:58:39;;;;;;;4.97;3.13;;;;;;;17.68;32.55;97561.69;5000414;28;20038;-80
2022/04/29 09:01:09;;;;;;;6.55;3.47;;;;;;;17.77;32.60;97570.22;5000932;28;20031;-80
2022/04/29 09:03:38;;;;;;;3.55;2.75;;;;;;;17.84;32.54;97570.25;5001543;28;20095;-80
2022/04/29 09:06:06;;;;;;;4.07;2.88;;;;;;;17.91;32.67;97565.78;4999547;28;20243;-80
2022/04/29 09:08:42;;;;;;;4.32;3.20;;;;;;;18.00;31.83;97569.84;5001336;28;20030;-81
2022/04/29 09:11:10;;;;;;;5.63;3.35;;;;;;;18.05;31.62;97571.84;5001317;28;20086;-80
2022/04/29 09:13:40;;;;;;;3.35;2.95;;;;;;;18.09;31.17;97576.53;5000590;28;20035;-81
2022/04/29 09:16:12;;;;;;;7.70;3.95;;;;;;;18.11;31.04;97566.56;5000680;28;20046;-81
2022/04/29 09:18:42;;;;;;;5.38;3.42;;;;;;;18.16;31.78;97565.16;5000554;28;20035;-79
2022/04/29 09:21:11;;;;;;;5.07;3.33;;;;;;;18.22;31.98;97566.97;4995084;28;20098;-81
2022/04/29 09:23:42;;;;;;;3.92;3.47;;;;;;;18.32;32.18;97556.75;4983342;28;20047;-80
2022/04/29 09:26:21;;;;;;;4.88;3.42;;;;;;;18.45;31.62;97564.66;5000497;28;20038;-80
2022/04/29 09:28:50;;;;;;;3.60;3.30;;;;;;;18.52;31.07;97562.00;4993848;28;20043;-81
2022/04/29 09:31:18;;;;;;;9.38;3.03;;;;;;;18.60;31.88;97564.41;4995307;28;20043;-81
2022/04/29 09:34:06;;;;;;;11.05;3.97;;;;;;;18.68;31.79;97566.81;5000903;28;20035;-81
2022/04/29 09:36:34;;;;;;;4.28;3.42;;;;;;;18.79;31.39;97568.03;5000302;28;20074;-81
2022/04/29 09:41:55;;;;;;;3.90;3.58;;;;;;;18.81;29.99;97560.69;4989628;28;20030;-81
2022/04/29 09:44:30;;;;;;;5.30;4.07;;;;;;;18.84;30.20;97560.25;5000635;28;20095;-80
2022/04/29 09:47:10;;;;;;;4.95;3.95;;;;;;;18.84;30.13;97565.53;5000698;28;20122;-82
2022/04/29 09:49:38;;;;;;;4.07;3.67;;;;;;;18.84;30.68;97557.63;5000457;28;20041;-81
2022/04/29 09:52:07;;;;;;;5.55;3.88;;;;;;;18.86;30.60;97558.22;5000030;28;20039;-81
2022/04/29 09:54:37;;;;;;;6.57;4.25;;;;;;;18.88;30.60;97548.25;4999666;28;20545;-80
2022/04/29 09:57:08;;;;;;;3.92;3.58;;;;;;;18.91;30.72;97555.78;4999875;28;20043;-80
2022/04/29 09:59:39;;;;;;;5.15;3.95;;;;;;;18.93;30.97;97551.09;5000609;28;20066;-81
2022/04/29 10:02:09;;;;;;;4.78;3.85;;;;;;;18.94;30.68;97550.03;5000407;28;20039;-81
2022/04/29 10:04:40;;;;;;;4.95;3.63;;;;;;;18.98;31.81;97544.31;4999762;28;20055;-81
2022/04/29 10:07:11;;;;;;;;;;;;;;;19.02;31.49;97541.06;4998695;28;20361;-81
2022/04/29 10:09:41;;;;;;;4.47;3.90;;;;;;;18.98;31.81;97536.38;4991666;28;19926;-81
2022/04/29 10:12:13;;;;;;;4.93;3.78;;;;;;;18.99;31.35;97530.91;4996477;28;20138;-80
2022/04/29 10:14:44;;;;;;;8.35;4.50;;;;;;;19.03;32.07;97526.81;4989197;28;20047;-81
2022/04/29 10:22:50;;;;;;;6.72;4.15;;;;;;;19.10;31.53;97526.78;4982664;28;20039;-80
2022/04/29 10:25:21;;;;;;;4.30;3.90;;;;;;;19.11;31.75;97523.91;4987532;28;20055;-81
2022/04/29 10:27:50;;;;;;;4.15;3.75;;;;;;;19.14;31.75;97527.97;4998579;28;20049;-80
2022/04/29 10:30:27;;;;;;;9.57;4.25;;;;;;;19.18;30.72;97523.88;4989560;28;20058;-82
2022/04/29 10:32:59;;;;;;;7.97;4.05;;;;;;;19.17;31.06;97522.25;4979165;28;20063;-81
2022/04/29 10:35:53;;;;;;;6.38;4.45;;;;;;;19.18;30.98;97508.00;4996036;28;20050;-81
2022/04/29 10:38:25;;;;;;;4.15;3.58;;;;;;;19.22;31.85;97514.50;4980241;28;20043;-80
2022/04/29 10:41:13;;;;;;;5.28;3.67;;;;;;;19.29;31.70;97514.44;4998728;28;20041;-80
2022/04/29 10:43:46;;;;;;;6.28;4.28;;;;;;;19.37;31.96;97516.00;4998431;28;20070;-81
2022/04/29 10:46:21;;;;;;;;;;;;;;;19.45;31.96;97510.44;4988572;28;20050;-79
2022/04/29 10:48:50;;;;;;;5.60;4.28;;;;;;;19.47;31.63;97505.75;4988194;28;19910;-79
2022/04/29 10:51:20;;;;;;;9.05;4.63;;;;;;;19.46;31.85;97509.41;4995844;28;20031;-81
2022/04/29 10:53:50;;;;;;;8.07;4.43;;;;;;;19.47;32.02;97505.75;4998918;28;20031;-80
2022/04/29 10:56:36;;;;;;;5.95;4.78;;;;;;;19.50;31.79;97500.00;4997912;28;20041;-80
2022/04/29 10:59:20;;;;;;;5.10;4.22;;;;;;;19.54;31.57;97491.41;4999049;28;20094;-80
2022/04/29 11:02:04;;;;;;;7.28;4.25;;;;;;;19.62;31.39;97489.56;4987647;28;20062;-82
2022/04/29 11:04:57;;;;;;;4.50;4.07;;;;;;;19.75;31.71;97487.59;4998353;28;20078;-81
2022/04/29 11:07:39;;;;;;;5.15;4.07;;;;;;;19.83;31.20;97483.06;4965316;28;20090;-80
2022/04/29 11:10:08;;;;;;;4.30;3.40;;;;;;;19.90;31.67;97475.88;4983837;28;20057;-80
2022/04/29 11:12:37;;;;;;;5.07;3.30;;;;;;;19.93;31.42;97473.56;4998913;28;20078;-80
2022/04/29 11:15:10;;;;;;;3.58;3.28;;;;;;;19.95;31.15;97476.81;4998641;28;20211;-80
2022/04/29 11:17:40;;;;;;;6.10;4.07;;;;;;;19.93;30.64;97473.56;4998611;28;20041;-81
2022/04/29 11:20:16;;;;;;;5.70;3.70;;;;;;;19.92;30.43;97471.97;4998375;28;20094;-80
2022/04/29 11:25:52;;;;;;;5.03;3.60;;;;;;;19.92;30.47;97465.88;4991683;28;20569;-81
2022/04/29 11:28:21;;;;;;;6.95;4.28;;;;;;;19.90;30.19;97468.72;4994805;28;20128;-80
2022/04/29 11:30:50;;;;;;;3.70;3.40;;;;;;;19.88;30.84;97460.19;4984531;28;20047;-81
2022/04/29 11:33:24;;;;;;;5.13;3.70;;;;;;;19.88;30.15;97459.41;4998949;28;20033;-81
2022/04/29 11:35:53;;;;;;;4.72;3.45;;;;;;;19.87;30.81;97463.06;5015511;23;20058;-79
2022/04/29 11:38:24;;;;;;;4.97;3.30;;;;;;;19.86;30.33;97461.44;4998866;28;20057;-80
2022/04/29 11:40:54;;;;;;;3.60;3.30;;;;;;;19.88;30.71;97460.19;4982412;28;20073;-80
2022/04/29 11:43:26;;;;;;;4.88;3.63;;;;;;;19.92;30.50;97464.03;4993099;28;20053;-80
2022/04/29 11:46:05;;;;;;;3.95;3.53;;;;;;;19.99;30.62;97461.31;5007518;28;20077;-80
2022/04/29 11:48:38;;;;;;;6.50;3.88;;;;;;;20.05;31.60;97465.72;5011015;28;20041;-80
2022/04/29 11:51:19;;;;;;;4.22;3.60;;;;;;;20.12;29.89;97463.00;5011841;28;20046;-80
2022/04/29 11:57:13;;;;;;;7.38;3.75;;;;;;;20.21;30.12;97447.63;5008856;28;20050;-80
2022/04/29 11:59:52;;;;;;;5.78;3.88;;;;;;;20.24;31.21;97441.84;5009689;28;20066;-81
2022/04/29 12:02:50;;;;;;;5.60;4.25;;;;;;;20.28;29.93;97440.38;5002049;28;20129;-80
2022/04/29 12:08:42;;;;;;;6.32;3.63;;;;;;;20.30;30.04;97438.31;4990747;28;20121;-80
2022/04/29 12:11:22;;;;;;;7.53;4.38;;;;;;;20.32;30.11;97444.22;4994427;28;20069;-80
2022/04/29 12:13:51;;;;;;;6.38;4.25;;;;;;;20.31;29.85;97432.81;4980272;28;20050;-80
2022/04/29 12:16:20;;;;;;;4.82;3.70;;;;;;;20.30;29.89;97425.88;4982614;28;20054;-81
2022/04/29 12:18:50;;;;;;;4.68;3.50;;;;;;;20.30;29.94;97428.53;4995674;28;20138;-79
2022/04/29 12:21:27;;;;;;;5.07;4.57;;;;;;;20.27;29.86;97430.81;4997686;28;20050;-79
2022/04/29 12:23:56;;;;;;;12.55;4.90;;;;;;;20.22;29.66;97426.19;5110094;23;20034;-79